Cincinnati (CVG/KCVG)

Map

Destinations

Information

Location
Cincinnati, KY
Local Time
14:17 / 2:17 pm
GMT Time
18:17 / 6:17 pm
Gates
No FAA reported delays
METAR KCVG 201652Z 21004KT 10SM FEW025 SCT230 BKN300 27/22 A3004 RMK AO2 SLP162 T02720217
TAF KCVG 201500Z 2015/2118 19005KT P6SM SCT150 FM201600 23006KT P6SM BKN050 FM202300 VRB04KT P6SM FEW050 FM210500 VRB03KT 5SM BR SCT250 FM211100 VRB03KT 2SM BR SCT250 FM211400 00000KT P6SM SCT250